sensor_id;sensor_type;location;lat;lon;timestamp;P1;durP1;ratioP1;P2;durP2;ratioP2
2896;SDS011;1458;49.728;9.228;2023-11-19T00:00:36;0.40;;;0.40;;
2896;SDS011;1458;49.728;9.228;2023-11-19T00:03:03;0.37;;;0.37;;
2896;SDS011;1458;49.728;9.228;2023-11-19T00:05:33;0.40;;;0.40;;
2896;SDS011;1458;49.728;9.228;2023-11-19T00:08:00;0.30;;;0.30;;
2896;SDS011;1458;49.728;9.228;2023-11-19T00:10:28;0.30;;;0.30;;
2896;SDS011;1458;49.728;9.228;2023-11-19T00:12:55;0.33;;;0.33;;
2896;SDS011;1458;49.728;9.228;2023-11-19T00:15:23;0.60;;;0.60;;
2896;SDS011;1458;49.728;9.228;2023-11-19T00:17:51;0.40;;;0.40;;
2896;SDS011;1458;49.728;9.228;2023-11-19T00:20:18;0.30;;;0.30;;
2896;SDS011;1458;49.728;9.228;2023-11-19T00:22:48;0.40;;;0.40;;
2896;SDS011;1458;49.728;9.228;2023-11-19T00:25:17;0.40;;;0.40;;
2896;SDS011;1458;49.728;9.228;2023-11-19T00:27:45;0.40;;;0.40;;
2896;SDS011;1458;49.728;9.228;2023-11-19T00:30:13;0.30;;;0.30;;
2896;SDS011;1458;49.728;9.228;2023-11-19T00:32:42;0.30;;;0.30;;
2896;SDS011;1458;49.728;9.228;2023-11-19T00:35:10;0.30;;;0.30;;
2896;SDS011;1458;49.728;9.228;2023-11-19T00:37:39;0.30;;;0.30;;
2896;SDS011;1458;49.728;9.228;2023-11-19T00:40:10;0.30;;;0.30;;
2896;SDS011;1458;49.728;9.228;2023-11-19T00:42:38;0.50;;;0.50;;
2896;SDS011;1458;49.728;9.228;2023-11-19T00:45:05;0.30;;;0.30;;
2896;SDS011;1458;49.728;9.228;2023-11-19T00:47:35;0.40;;;0.40;;
2896;SDS011;1458;49.728;9.228;2023-11-19T00:50:02;0.30;;;0.30;;
2896;SDS011;1458;49.728;9.228;2023-11-19T00:52:30;0.30;;;0.30;;
2896;SDS011;1458;49.728;9.228;2023-11-19T00:54:58;0.30;;;0.30;;
2896;SDS011;1458;49.728;9.228;2023-11-19T00:57:26;0.30;;;0.30;;
2896;SDS011;1458;49.728;9.228;2023-11-19T00:59:54;0.30;;;0.30;;
2896;SDS011;1458;49.728;9.228;2023-11-19T01:02:21;0.30;;;0.30;;
2896;SDS011;1458;49.728;9.228;2023-11-19T01:04:49;0.37;;;0.37;;
2896;SDS011;1458;49.728;9.228;2023-11-19T01:07:17;0.40;;;0.40;;
2896;SDS011;1458;49.728;9.228;2023-11-19T01:09:47;0.33;;;0.33;;
2896;SDS011;1458;49.728;9.228;2023-11-19T01:12:14;0.40;;;0.40;;
2896;SDS011;1458;49.728;9.228;2023-11-19T01:14:43;0.40;;;0.40;;
2896;SDS011;1458;49.728;9.228;2023-11-19T01:17:10;0.40;;;0.40;;
2896;SDS011;1458;49.728;9.228;2023-11-19T01:19:38;0.40;;;0.40;;
2896;SDS011;1458;49.728;9.228;2023-11-19T01:22:05;0.30;;;0.30;;
2896;SDS011;1458;49.728;9.228;2023-11-19T01:24:33;0.30;;;0.30;;
2896;SDS011;1458;49.728;9.228;2023-11-19T01:27:00;0.30;;;0.30;;
2896;SDS011;1458;49.728;9.228;2023-11-19T01:29:27;0.30;;;0.30;;
2896;SDS011;1458;49.728;9.228;2023-11-19T01:31:56;0.30;;;0.30;;
2896;SDS011;1458;49.728;9.228;2023-11-19T01:34:24;0.40;;;0.40;;
2896;SDS011;1458;49.728;9.228;2023-11-19T01:36:51;0.40;;;0.40;;
2896;SDS011;1458;49.728;9.228;2023-11-19T01:39:19;0.30;;;0.30;;
2896;SDS011;1458;49.728;9.228;2023-11-19T01:41:46;0.37;;;0.37;;
2896;SDS011;1458;49.728;9.228;2023-11-19T01:44:13;0.40;;;0.40;;
2896;SDS011;1458;49.728;9.228;2023-11-19T01:46:41;0.40;;;0.40;;
2896;SDS011;1458;49.728;9.228;2023-11-19T01:49:14;0.33;;;0.33;;
2896;SDS011;1458;49.728;9.228;2023-11-19T01:51:42;0.30;;;0.30;;
2896;SDS011;1458;49.728;9.228;2023-11-19T01:54:09;0.40;;;0.40;;
2896;SDS011;1458;49.728;9.228;2023-11-19T01:56:38;0.40;;;0.40;;
2896;SDS011;1458;49.728;9.228;2023-11-19T01:59:07;0.40;;;0.40;;
2896;SDS011;1458;49.728;9.228;2023-11-19T02:01:38;0.40;;;0.40;;
2896;SDS011;1458;49.728;9.228;2023-11-19T02:04:06;0.40;;;0.40;;
2896;SDS011;1458;49.728;9.228;2023-11-19T02:06:36;0.40;;;0.40;;
2896;SDS011;1458;49.728;9.228;2023-11-19T02:09:07;0.40;;;0.40;;
2896;SDS011;1458;49.728;9.228;2023-11-19T02:11:35;0.40;;;0.40;;
2896;SDS011;1458;49.728;9.228;2023-11-19T02:14:05;0.43;;;0.43;;
2896;SDS011;1458;49.728;9.228;2023-11-19T02:16:33;0.40;;;0.40;;
2896;SDS011;1458;49.728;9.228;2023-11-19T02:19:00;0.40;;;0.40;;
2896;SDS011;1458;49.728;9.228;2023-11-19T02:21:29;0.33;;;0.33;;
2896;SDS011;1458;49.728;9.228;2023-11-19T02:23:57;0.40;;;0.40;;
2896;SDS011;1458;49.728;9.228;2023-11-19T02:26:26;0.30;;;0.30;;
2896;SDS011;1458;49.728;9.228;2023-11-19T02:29:05;0.40;;;0.40;;
2896;SDS011;1458;49.728;9.228;2023-11-19T02:31:33;0.40;;;0.40;;
2896;SDS011;1458;49.728;9.228;2023-11-19T02:34:01;0.40;;;0.40;;
2896;SDS011;1458;49.728;9.228;2023-11-19T02:36:28;0.30;;;0.30;;
2896;SDS011;1458;49.728;9.228;2023-11-19T02:38:57;0.33;;;0.33;;
2896;SDS011;1458;49.728;9.228;2023-11-19T02:41:25;0.43;;;0.43;;
2896;SDS011;1458;49.728;9.228;2023-11-19T02:43:52;0.30;;;0.30;;
2896;SDS011;1458;49.728;9.228;2023-11-19T02:46:21;0.30;;;0.30;;
2896;SDS011;1458;49.728;9.228;2023-11-19T02:48:48;0.47;;;0.47;;
2896;SDS011;1458;49.728;9.228;2023-11-19T02:51:17;0.40;;;0.40;;
2896;SDS011;1458;49.728;9.228;2023-11-19T02:53:44;0.40;;;0.40;;
2896;SDS011;1458;49.728;9.228;2023-11-19T02:56:13;0.30;;;0.30;;
2896;SDS011;1458;49.728;9.228;2023-11-19T02:58:45;0.40;;;0.40;;
2896;SDS011;1458;49.728;9.228;2023-11-19T03:01:14;0.40;;;0.40;;
2896;SDS011;1458;49.728;9.228;2023-11-19T03:03:54;0.40;;;0.40;;
2896;SDS011;1458;49.728;9.228;2023-11-19T03:06:23;0.20;;;0.20;;
2896;SDS011;1458;49.728;9.228;2023-11-19T03:08:51;0.37;;;0.37;;
2896;SDS011;1458;49.728;9.228;2023-11-19T03:11:18;0.30;;;0.30;;
2896;SDS011;1458;49.728;9.228;2023-11-19T03:13:46;0.30;;;0.30;;
2896;SDS011;1458;49.728;9.228;2023-11-19T03:16:13;0.40;;;0.40;;
2896;SDS011;1458;49.728;9.228;2023-11-19T03:18:43;0.30;;;0.30;;
2896;SDS011;1458;49.728;9.228;2023-11-19T03:21:11;0.30;;;0.30;;
2896;SDS011;1458;49.728;9.228;2023-11-19T03:23:39;0.30;;;0.30;;
2896;SDS011;1458;49.728;9.228;2023-11-19T03:26:06;0.30;;;0.30;;
2896;SDS011;1458;49.728;9.228;2023-11-19T03:28:34;0.30;;;0.30;;
2896;SDS011;1458;49.728;9.228;2023-11-19T03:31:04;0.30;;;0.30;;
2896;SDS011;1458;49.728;9.228;2023-11-19T03:33:34;0.30;;;0.30;;
2896;SDS011;1458;49.728;9.228;2023-11-19T03:36:04;0.40;;;0.40;;
2896;SDS011;1458;49.728;9.228;2023-11-19T03:38:32;0.30;;;0.30;;
2896;SDS011;1458;49.728;9.228;2023-11-19T03:41:00;0.33;;;0.33;;
2896;SDS011;1458;49.728;9.228;2023-11-19T03:43:37;0.40;;;0.40;;
2896;SDS011;1458;49.728;9.228;2023-11-19T03:46:15;0.30;;;0.30;;
2896;SDS011;1458;49.728;9.228;2023-11-19T03:48:44;0.30;;;0.30;;
2896;SDS011;1458;49.728;9.228;2023-11-19T03:51:14;0.30;;;0.30;;
2896;SDS011;1458;49.728;9.228;2023-11-19T03:53:42;0.27;;;0.27;;
2896;SDS011;1458;49.728;9.228;2023-11-19T03:56:09;0.30;;;0.30;;
2896;SDS011;1458;49.728;9.228;2023-11-19T03:58:38;0.40;;;0.40;;
2896;SDS011;1458;49.728;9.228;2023-11-19T04:01:06;0.30;;;0.30;;
2896;SDS011;1458;49.728;9.228;2023-11-19T04:03:38;0.30;;;0.30;;
2896;SDS011;1458;49.728;9.228;2023-11-19T04:06:06;0.30;;;0.30;;
2896;SDS011;1458;49.728;9.228;2023-11-19T04:08:36;0.40;;;0.40;;
2896;SDS011;1458;49.728;9.228;2023-11-19T04:11:04;0.37;;;0.37;;
2896;SDS011;1458;49.728;9.228;2023-11-19T04:13:31;0.30;;;0.30;;
2896;SDS011;1458;49.728;9.228;2023-11-19T04:15:59;0.40;;;0.40;;
2896;SDS011;1458;49.728;9.228;2023-11-19T04:18:27;0.30;;;0.30;;
2896;SDS011;1458;49.728;9.228;2023-11-19T04:20:54;0.30;;;0.30;;
2896;SDS011;1458;49.728;9.228;2023-11-19T04:23:22;0.30;;;0.30;;
2896;SDS011;1458;49.728;9.228;2023-11-19T04:25:52;0.30;;;0.30;;
2896;SDS011;1458;49.728;9.228;2023-11-19T04:28:19;0.30;;;0.30;;
2896;SDS011;1458;49.728;9.228;2023-11-19T04:30:47;0.30;;;0.30;;
2896;SDS011;1458;49.728;9.228;2023-11-19T04:33:15;0.33;;;0.33;;
2896;SDS011;1458;49.728;9.228;2023-11-19T04:35:42;0.30;;;0.30;;
2896;SDS011;1458;49.728;9.228;2023-11-19T04:38:09;0.30;;;0.30;;
2896;SDS011;1458;49.728;9.228;2023-11-19T04:40:37;0.40;;;0.40;;
2896;SDS011;1458;49.728;9.228;2023-11-19T04:43:05;0.30;;;0.30;;
2896;SDS011;1458;49.728;9.228;2023-11-19T04:45:33;0.40;;;0.40;;
2896;SDS011;1458;49.728;9.228;2023-11-19T04:48:00;0.50;;;0.50;;
2896;SDS011;1458;49.728;9.228;2023-11-19T04:50:27;0.33;;;0.33;;
2896;SDS011;1458;49.728;9.228;2023-11-19T04:52:55;0.30;;;0.30;;
2896;SDS011;1458;49.728;9.228;2023-11-19T04:55:23;0.30;;;0.30;;
2896;SDS011;1458;49.728;9.228;2023-11-19T04:57:50;0.30;;;0.30;;
2896;SDS011;1458;49.728;9.228;2023-11-19T05:00:21;0.30;;;0.30;;
2896;SDS011;1458;49.728;9.228;2023-11-19T05:02:49;0.30;;;0.30;;
2896;SDS011;1458;49.728;9.228;2023-11-19T05:05:16;0.40;;;0.40;;
2896;SDS011;1458;49.728;9.228;2023-11-19T05:07:44;0.30;;;0.30;;
2896;SDS011;1458;49.728;9.228;2023-11-19T05:10:11;0.30;;;0.30;;
2896;SDS011;1458;49.728;9.228;2023-11-19T05:12:39;0.30;;;0.30;;
2896;SDS011;1458;49.728;9.228;2023-11-19T05:15:06;0.30;;;0.30;;
2896;SDS011;1458;49.728;9.228;2023-11-19T05:17:36;0.30;;;0.30;;
2896;SDS011;1458;49.728;9.228;2023-11-19T05:20:04;0.30;;;0.30;;
2896;SDS011;1458;49.728;9.228;2023-11-19T05:22:38;0.20;;;0.20;;
2896;SDS011;1458;49.728;9.228;2023-11-19T05:25:06;0.40;;;0.40;;
2896;SDS011;1458;49.728;9.228;2023-11-19T05:27:35;0.30;;;0.30;;
2896;SDS011;1458;49.728;9.228;2023-11-19T05:30:04;0.40;;;0.40;;
2896;SDS011;1458;49.728;9.228;2023-11-19T05:32:37;0.30;;;0.30;;
2896;SDS011;1458;49.728;9.228;2023-11-19T05:35:04;0.30;;;0.30;;
2896;SDS011;1458;49.728;9.228;2023-11-19T05:37:34;0.30;;;0.30;;
2896;SDS011;1458;49.728;9.228;2023-11-19T05:40:01;0.23;;;0.23;;
2896;SDS011;1458;49.728;9.228;2023-11-19T05:42:31;0.30;;;0.30;;
2896;SDS011;1458;49.728;9.228;2023-11-19T05:44:59;0.30;;;0.30;;
2896;SDS011;1458;49.728;9.228;2023-11-19T05:47:26;0.30;;;0.30;;
2896;SDS011;1458;49.728;9.228;2023-11-19T05:49:55;0.30;;;0.30;;
2896;SDS011;1458;49.728;9.228;2023-11-19T05:52:23;0.30;;;0.30;;
2896;SDS011;1458;49.728;9.228;2023-11-19T05:54:50;0.30;;;0.30;;
2896;SDS011;1458;49.728;9.228;2023-11-19T05:57:18;0.30;;;0.30;;
2896;SDS011;1458;49.728;9.228;2023-11-19T05:59:50;0.30;;;0.30;;
2896;SDS011;1458;49.728;9.228;2023-11-19T06:02:19;0.40;;;0.40;;
2896;SDS011;1458;49.728;9.228;2023-11-19T06:04:47;0.40;;;0.40;;
2896;SDS011;1458;49.728;9.228;2023-11-19T06:07:16;0.30;;;0.30;;
2896;SDS011;1458;49.728;9.228;2023-11-19T06:09:43;0.30;;;0.30;;
2896;SDS011;1458;49.728;9.228;2023-11-19T06:12:11;0.30;;;0.30;;
2896;SDS011;1458;49.728;9.228;2023-11-19T06:14:39;0.30;;;0.30;;
2896;SDS011;1458;49.728;9.228;2023-11-19T06:17:12;0.30;;;0.30;;
2896;SDS011;1458;49.728;9.228;2023-11-19T06:19:39;0.20;;;0.20;;
2896;SDS011;1458;49.728;9.228;2023-11-19T06:22:06;0.30;;;0.30;;
2896;SDS011;1458;49.728;9.228;2023-11-19T06:24:35;0.30;;;0.30;;
2896;SDS011;1458;49.728;9.228;2023-11-19T06:27:03;0.30;;;0.30;;
2896;SDS011;1458;49.728;9.228;2023-11-19T06:29:30;0.30;;;0.30;;
2896;SDS011;1458;49.728;9.228;2023-11-19T06:31:58;0.40;;;0.40;;
2896;SDS011;1458;49.728;9.228;2023-11-19T06:34:25;0.30;;;0.30;;
2896;SDS011;1458;49.728;9.228;2023-11-19T06:36:54;0.30;;;0.30;;
2896;SDS011;1458;49.728;9.228;2023-11-19T06:39:24;0.30;;;0.30;;
2896;SDS011;1458;49.728;9.228;2023-11-19T06:41:54;0.30;;;0.30;;
2896;SDS011;1458;49.728;9.228;2023-11-19T06:44:22;0.30;;;0.30;;
2896;SDS011;1458;49.728;9.228;2023-11-19T06:46:50;0.30;;;0.30;;
2896;SDS011;1458;49.728;9.228;2023-11-19T06:49:19;0.30;;;0.30;;
2896;SDS011;1458;49.728;9.228;2023-11-19T06:51:46;0.20;;;0.20;;
2896;SDS011;1458;49.728;9.228;2023-11-19T06:54:14;0.30;;;0.30;;
2896;SDS011;1458;49.728;9.228;2023-11-19T06:56:41;0.30;;;0.30;;
2896;SDS011;1458;49.728;9.228;2023-11-19T06:59:10;0.40;;;0.40;;
2896;SDS011;1458;49.728;9.228;2023-11-19T07:01:37;0.40;;;0.40;;
2896;SDS011;1458;49.728;9.228;2023-11-19T07:04:10;0.40;;;0.40;;
2896;SDS011;1458;49.728;9.228;2023-11-19T07:06:37;0.40;;;0.40;;
2896;SDS011;1458;49.728;9.228;2023-11-19T07:09:06;0.30;;;0.30;;
2896;SDS011;1458;49.728;9.228;2023-11-19T07:11:35;0.30;;;0.30;;
2896;SDS011;1458;49.728;9.228;2023-11-19T07:14:04;0.30;;;0.30;;
2896;SDS011;1458;49.728;9.228;2023-11-19T07:16:33;0.30;;;0.30;;
2896;SDS011;1458;49.728;9.228;2023-11-19T07:19:02;0.30;;;0.30;;
2896;SDS011;1458;49.728;9.228;2023-11-19T07:21:30;0.20;;;0.20;;
2896;SDS011;1458;49.728;9.228;2023-11-19T07:23:58;0.30;;;0.30;;
2896;SDS011;1458;49.728;9.228;2023-11-19T07:26:26;0.30;;;0.30;;
2896;SDS011;1458;49.728;9.228;2023-11-19T07:28:53;0.30;;;0.30;;
2896;SDS011;1458;49.728;9.228;2023-11-19T07:31:22;0.20;;;0.20;;
2896;SDS011;1458;49.728;9.228;2023-11-19T07:33:51;0.20;;;0.20;;
2896;SDS011;1458;49.728;9.228;2023-11-19T07:36:19;0.30;;;0.30;;
2896;SDS011;1458;49.728;9.228;2023-11-19T07:38:46;0.27;;;0.27;;
2896;SDS011;1458;49.728;9.228;2023-11-19T07:41:14;0.20;;;0.20;;
2896;SDS011;1458;49.728;9.228;2023-11-19T07:43:43;0.20;;;0.20;;
2896;SDS011;1458;49.728;9.228;2023-11-19T07:46:11;0.30;;;0.30;;
2896;SDS011;1458;49.728;9.228;2023-11-19T07:48:40;0.30;;;0.30;;
2896;SDS011;1458;49.728;9.228;2023-11-19T07:51:10;0.20;;;0.20;;
2896;SDS011;1458;49.728;9.228;2023-11-19T07:53:41;0.40;;;0.40;;
2896;SDS011;1458;49.728;9.228;2023-11-19T07:56:09;0.30;;;0.30;;
2896;SDS011;1458;49.728;9.228;2023-11-19T07:58:37;0.20;;;0.20;;
2896;SDS011;1458;49.728;9.228;2023-11-19T08:01:05;0.30;;;0.30;;
2896;SDS011;1458;49.728;9.228;2023-11-19T08:03:35;0.23;;;0.23;;
2896;SDS011;1458;49.728;9.228;2023-11-19T08:06:03;0.30;;;0.30;;
2896;SDS011;1458;49.728;9.228;2023-11-19T08:08:36;0.30;;;0.30;;
2896;SDS011;1458;49.728;9.228;2023-11-19T08:11:04;0.20;;;0.20;;
2896;SDS011;1458;49.728;9.228;2023-11-19T08:13:32;0.30;;;0.30;;
2896;SDS011;1458;49.728;9.228;2023-11-19T08:15:59;0.20;;;0.20;;
2896;SDS011;1458;49.728;9.228;2023-11-19T08:18:27;0.20;;;0.20;;
2896;SDS011;1458;49.728;9.228;2023-11-19T08:20:55;0.30;;;0.30;;
2896;SDS011;1458;49.728;9.228;2023-11-19T08:23:23;0.30;;;0.30;;
2896;SDS011;1458;49.728;9.228;2023-11-19T08:25:52;0.20;;;0.20;;
2896;SDS011;1458;49.728;9.228;2023-11-19T08:28:19;0.30;;;0.30;;
2896;SDS011;1458;49.728;9.228;2023-11-19T08:30:47;0.20;;;0.20;;
2896;SDS011;1458;49.728;9.228;2023-11-19T08:33:14;0.30;;;0.30;;
2896;SDS011;1458;49.728;9.228;2023-11-19T08:35:42;0.30;;;0.30;;
2896;SDS011;1458;49.728;9.228;2023-11-19T08:38:10;0.20;;;0.20;;
2896;SDS011;1458;49.728;9.228;2023-11-19T08:40:37;0.30;;;0.30;;
2896;SDS011;1458;49.728;9.228;2023-11-19T08:43:06;0.30;;;0.30;;
2896;SDS011;1458;49.728;9.228;2023-11-19T08:45:33;0.30;;;0.30;;
2896;SDS011;1458;49.728;9.228;2023-11-19T08:48:01;0.30;;;0.30;;
2896;SDS011;1458;49.728;9.228;2023-11-19T08:50:29;0.30;;;0.30;;
2896;SDS011;1458;49.728;9.228;2023-11-19T08:52:56;0.27;;;0.27;;
2896;SDS011;1458;49.728;9.228;2023-11-19T08:55:24;0.30;;;0.30;;
2896;SDS011;1458;49.728;9.228;2023-11-19T08:57:51;0.20;;;0.20;;
2896;SDS011;1458;49.728;9.228;2023-11-19T09:00:20;0.30;;;0.30;;
2896;SDS011;1458;49.728;9.228;2023-11-19T09:02:47;0.37;;;0.37;;
2896;SDS011;1458;49.728;9.228;2023-11-19T09:05:15;0.30;;;0.30;;
2896;SDS011;1458;49.728;9.228;2023-11-19T09:07:42;0.20;;;0.20;;
2896;SDS011;1458;49.728;9.228;2023-11-19T09:10:10;0.20;;;0.20;;
2896;SDS011;1458;49.728;9.228;2023-11-19T09:12:40;0.23;;;0.23;;
2896;SDS011;1458;49.728;9.228;2023-11-19T09:15:08;0.20;;;0.20;;
2896;SDS011;1458;49.728;9.228;2023-11-19T09:17:38;0.20;;;0.20;;
2896;SDS011;1458;49.728;9.228;2023-11-19T09:20:06;0.30;;;0.30;;
2896;SDS011;1458;49.728;9.228;2023-11-19T09:22:37;0.20;;;0.20;;
2896;SDS011;1458;49.728;9.228;2023-11-19T09:25:04;0.20;;;0.20;;
2896;SDS011;1458;49.728;9.228;2023-11-19T09:27:33;0.20;;;0.20;;
2896;SDS011;1458;49.728;9.228;2023-11-19T09:30:00;0.20;;;0.20;;
2896;SDS011;1458;49.728;9.228;2023-11-19T09:32:29;0.30;;;0.30;;
2896;SDS011;1458;49.728;9.228;2023-11-19T09:34:59;0.30;;;0.30;;
2896;SDS011;1458;49.728;9.228;2023-11-19T09:37:28;0.20;;;0.20;;
2896;SDS011;1458;49.728;9.228;2023-11-19T09:39:55;0.30;;;0.30;;
2896;SDS011;1458;49.728;9.228;2023-11-19T09:42:23;0.20;;;0.20;;
2896;SDS011;1458;49.728;9.228;2023-11-19T09:44:52;0.20;;;0.20;;
2896;SDS011;1458;49.728;9.228;2023-11-19T09:47:23;0.30;;;0.30;;
2896;SDS011;1458;49.728;9.228;2023-11-19T09:49:55;0.30;;;0.30;;
2896;SDS011;1458;49.728;9.228;2023-11-19T09:52:24;0.20;;;0.20;;
2896;SDS011;1458;49.728;9.228;2023-11-19T09:54:51;0.20;;;0.20;;
2896;SDS011;1458;49.728;9.228;2023-11-19T09:57:19;0.30;;;0.30;;
2896;SDS011;1458;49.728;9.228;2023-11-19T09:59:46;0.30;;;0.30;;
2896;SDS011;1458;49.728;9.228;2023-11-19T10:02:15;0.30;;;0.30;;
2896;SDS011;1458;49.728;9.228;2023-11-19T10:04:43;0.30;;;0.30;;
2896;SDS011;1458;49.728;9.228;2023-11-19T10:07:14;0.30;;;0.30;;
2896;SDS011;1458;49.728;9.228;2023-11-19T10:09:42;0.30;;;0.30;;
2896;SDS011;1458;49.728;9.228;2023-11-19T10:12:11;0.33;;;0.33;;
2896;SDS011;1458;49.728;9.228;2023-11-19T10:14:39;0.40;;;0.40;;
2896;SDS011;1458;49.728;9.228;2023-11-19T10:17:08;0.47;;;0.47;;
2896;SDS011;1458;49.728;9.228;2023-11-19T10:19:35;0.30;;;0.30;;
2896;SDS011;1458;49.728;9.228;2023-11-19T10:22:03;0.30;;;0.30;;
2896;SDS011;1458;49.728;9.228;2023-11-19T10:24:33;0.40;;;0.40;;
2896;SDS011;1458;49.728;9.228;2023-11-19T10:27:04;0.30;;;0.30;;
2896;SDS011;1458;49.728;9.228;2023-11-19T10:29:35;0.30;;;0.30;;
2896;SDS011;1458;49.728;9.228;2023-11-19T10:32:04;0.30;;;0.30;;
2896;SDS011;1458;49.728;9.228;2023-11-19T10:34:32;0.30;;;0.30;;
2896;SDS011;1458;49.728;9.228;2023-11-19T10:36:59;0.30;;;0.30;;
2896;SDS011;1458;49.728;9.228;2023-11-19T10:39:31;0.40;;;0.40;;
2896;SDS011;1458;49.728;9.228;2023-11-19T10:42:20;0.27;;;0.27;;
2896;SDS011;1458;49.728;9.228;2023-11-19T10:44:48;0.30;;;0.30;;
2896;SDS011;1458;49.728;9.228;2023-11-19T10:47:15;0.30;;;0.30;;
2896;SDS011;1458;49.728;9.228;2023-11-19T10:49:47;0.20;;;0.20;;
2896;SDS011;1458;49.728;9.228;2023-11-19T10:52:16;0.30;;;0.30;;
2896;SDS011;1458;49.728;9.228;2023-11-19T10:54:48;0.30;;;0.30;;
2896;SDS011;1458;49.728;9.228;2023-11-19T10:57:20;0.20;;;0.20;;
2896;SDS011;1458;49.728;9.228;2023-11-19T10:59:48;0.30;;;0.30;;
2896;SDS011;1458;49.728;9.228;2023-11-19T11:02:19;0.30;;;0.30;;
2896;SDS011;1458;49.728;9.228;2023-11-19T11:04:51;0.20;;;0.20;;
2896;SDS011;1458;49.728;9.228;2023-11-19T11:07:19;0.30;;;0.30;;
2896;SDS011;1458;49.728;9.228;2023-11-19T11:09:51;0.30;;;0.30;;
2896;SDS011;1458;49.728;9.228;2023-11-19T11:12:21;0.30;;;0.30;;
2896;SDS011;1458;49.728;9.228;2023-11-19T11:14:50;0.30;;;0.30;;
2896;SDS011;1458;49.728;9.228;2023-11-19T11:17:20;0.30;;;0.30;;
2896;SDS011;1458;49.728;9.228;2023-11-19T11:19:53;0.30;;;0.30;;
2896;SDS011;1458;49.728;9.228;2023-11-19T11:22:21;0.20;;;0.20;;
2896;SDS011;1458;49.728;9.228;2023-11-19T11:24:56;0.30;;;0.30;;
2896;SDS011;1458;49.728;9.228;2023-11-19T11:27:46;0.30;;;0.30;;
2896;SDS011;1458;49.728;9.228;2023-11-19T11:30:30;0.30;;;0.30;;
2896;SDS011;1458;49.728;9.228;2023-11-19T11:33:15;0.30;;;0.30;;
2896;SDS011;1458;49.728;9.228;2023-11-19T11:36:04;0.30;;;0.30;;
2896;SDS011;1458;49.728;9.228;2023-11-19T11:38:40;0.30;;;0.30;;
2896;SDS011;1458;49.728;9.228;2023-11-19T11:41:18;0.30;;;0.30;;
2896;SDS011;1458;49.728;9.228;2023-11-19T11:43:49;0.30;;;0.30;;
2896;SDS011;1458;49.728;9.228;2023-11-19T11:49:25;0.30;;;0.30;;
2896;SDS011;1458;49.728;9.228;2023-11-19T11:51:59;0.40;;;0.40;;
2896;SDS011;1458;49.728;9.228;2023-11-19T11:54:28;0.30;;;0.30;;
2896;SDS011;1458;49.728;9.228;2023-11-19T11:57:01;0.30;;;0.30;;
2896;SDS011;1458;49.728;9.228;2023-11-19T11:59:44;0.37;;;0.37;;
2896;SDS011;1458;49.728;9.228;2023-11-19T12:02:14;0.30;;;0.30;;
2896;SDS011;1458;49.728;9.228;2023-11-19T12:04:46;0.40;;;0.40;;
2896;SDS011;1458;49.728;9.228;2023-11-19T12:07:16;0.40;;;0.40;;
2896;SDS011;1458;49.728;9.228;2023-11-19T12:09:48;0.40;;;0.40;;
2896;SDS011;1458;49.728;9.228;2023-11-19T12:12:22;0.50;;;0.50;;
2896;SDS011;1458;49.728;9.228;2023-11-19T12:15:01;0.40;;;0.40;;
2896;SDS011;1458;49.728;9.228;2023-11-19T12:17:36;0.40;;;0.40;;
2896;SDS011;1458;49.728;9.228;2023-11-19T12:20:15;0.40;;;0.40;;
2896;SDS011;1458;49.728;9.228;2023-11-19T12:22:44;0.50;;;0.50;;
2896;SDS011;1458;49.728;9.228;2023-11-19T12:25:14;0.60;;;0.60;;
2896;SDS011;1458;49.728;9.228;2023-11-19T12:27:44;0.50;;;0.50;;
2896;SDS011;1458;49.728;9.228;2023-11-19T12:30:18;0.67;;;0.67;;
2896;SDS011;1458;49.728;9.228;2023-11-19T12:32:49;0.50;;;0.50;;
2896;SDS011;1458;49.728;9.228;2023-11-19T12:35:18;0.50;;;0.50;;
2896;SDS011;1458;49.728;9.228;2023-11-19T12:37:48;0.50;;;0.50;;
2896;SDS011;1458;49.728;9.228;2023-11-19T12:40:17;0.60;;;0.60;;
2896;SDS011;1458;49.728;9.228;2023-11-19T12:42:46;0.50;;;0.50;;
2896;SDS011;1458;49.728;9.228;2023-11-19T12:45:14;0.50;;;0.50;;
2896;SDS011;1458;49.728;9.228;2023-11-19T12:47:43;0.50;;;0.50;;
2896;SDS011;1458;49.728;9.228;2023-11-19T12:50:13;0.50;;;0.50;;
2896;SDS011;1458;49.728;9.228;2023-11-19T12:52:40;0.57;;;0.57;;
2896;SDS011;1458;49.728;9.228;2023-11-19T12:57:52;0.70;;;0.70;;
2896;SDS011;1458;49.728;9.228;2023-11-19T13:00:20;0.60;;;0.60;;
2896;SDS011;1458;49.728;9.228;2023-11-19T13:02:51;0.50;;;0.50;;
2896;SDS011;1458;49.728;9.228;2023-11-19T13:05:23;0.60;;;0.60;;
2896;SDS011;1458;49.728;9.228;2023-11-19T13:07:59;0.80;;;0.80;;
2896;SDS011;1458;49.728;9.228;2023-11-19T13:10:31;0.70;;;0.70;;
2896;SDS011;1458;49.728;9.228;2023-11-19T13:13:04;0.60;;;0.60;;
2896;SDS011;1458;49.728;9.228;2023-11-19T13:15:33;0.90;;;0.90;;
2896;SDS011;1458;49.728;9.228;2023-11-19T13:18:02;0.70;;;0.70;;
2896;SDS011;1458;49.728;9.228;2023-11-19T13:20:32;0.70;;;0.70;;
2896;SDS011;1458;49.728;9.228;2023-11-19T13:23:00;0.63;;;0.63;;
2896;SDS011;1458;49.728;9.228;2023-11-19T13:25:28;0.60;;;0.60;;
2896;SDS011;1458;49.728;9.228;2023-11-19T13:27:57;0.80;;;0.80;;
2896;SDS011;1458;49.728;9.228;2023-11-19T13:30:25;0.70;;;0.70;;
2896;SDS011;1458;49.728;9.228;2023-11-19T13:32:54;0.70;;;0.70;;
2896;SDS011;1458;49.728;9.228;2023-11-19T13:35:23;1.00;;;1.00;;
2896;SDS011;1458;49.728;9.228;2023-11-19T13:37:53;0.80;;;0.80;;
2896;SDS011;1458;49.728;9.228;2023-11-19T13:40:20;1.00;;;1.00;;
2896;SDS011;1458;49.728;9.228;2023-11-19T13:42:49;1.53;;;1.53;;
2896;SDS011;1458;49.728;9.228;2023-11-19T13:45:17;1.30;;;1.30;;
2896;SDS011;1458;49.728;9.228;2023-11-19T13:47:46;1.20;;;1.20;;
2896;SDS011;1458;49.728;9.228;2023-11-19T13:50:14;1.60;;;1.60;;
2896;SDS011;1458;49.728;9.228;2023-11-19T13:52:43;1.83;;;1.83;;
2896;SDS011;1458;49.728;9.228;2023-11-19T13:55:12;2.10;;;2.10;;
2896;SDS011;1458;49.728;9.228;2023-11-19T13:57:41;2.10;;;2.10;;
2896;SDS011;1458;49.728;9.228;2023-11-19T14:00:09;2.27;;;2.27;;
2896;SDS011;1458;49.728;9.228;2023-11-19T14:02:38;2.20;;;2.20;;
2896;SDS011;1458;49.728;9.228;2023-11-19T14:05:06;2.10;;;2.10;;
2896;SDS011;1458;49.728;9.228;2023-11-19T14:07:34;2.03;;;2.03;;
2896;SDS011;1458;49.728;9.228;2023-11-19T14:10:03;2.00;;;2.00;;
2896;SDS011;1458;49.728;9.228;2023-11-19T14:12:32;2.03;;;2.03;;
2896;SDS011;1458;49.728;9.228;2023-11-19T14:15:00;2.30;;;2.30;;
2896;SDS011;1458;49.728;9.228;2023-11-19T14:17:27;2.57;;;2.57;;
2896;SDS011;1458;49.728;9.228;2023-11-19T14:19:55;2.80;;;2.80;;
2896;SDS011;1458;49.728;9.228;2023-11-19T14:22:22;2.80;;;2.80;;
2896;SDS011;1458;49.728;9.228;2023-11-19T14:24:50;2.90;;;2.90;;
2896;SDS011;1458;49.728;9.228;2023-11-19T14:27:18;3.43;;;3.43;;
2896;SDS011;1458;49.728;9.228;2023-11-19T14:29:47;3.40;;;3.40;;
2896;SDS011;1458;49.728;9.228;2023-11-19T14:32:16;2.90;;;2.90;;
2896;SDS011;1458;49.728;9.228;2023-11-19T14:34:43;3.13;;;3.13;;
2896;SDS011;1458;49.728;9.228;2023-11-19T14:37:11;3.40;;;3.40;;
2896;SDS011;1458;49.728;9.228;2023-11-19T14:39:38;3.40;;;3.40;;
2896;SDS011;1458;49.728;9.228;2023-11-19T14:42:06;3.00;;;3.00;;
2896;SDS011;1458;49.728;9.228;2023-11-19T14:44:35;2.67;;;2.67;;
2896;SDS011;1458;49.728;9.228;2023-11-19T14:47:02;2.70;;;2.70;;
2896;SDS011;1458;49.728;9.228;2023-11-19T14:49:30;2.50;;;2.50;;
2896;SDS011;1458;49.728;9.228;2023-11-19T14:51:57;2.50;;;2.50;;
2896;SDS011;1458;49.728;9.228;2023-11-19T14:54:25;2.50;;;2.50;;
2896;SDS011;1458;49.728;9.228;2023-11-19T14:56:52;2.50;;;2.50;;
2896;SDS011;1458;49.728;9.228;2023-11-19T14:59:19;2.53;;;2.53;;
2896;SDS011;1458;49.728;9.228;2023-11-19T15:01:48;2.40;;;2.40;;
2896;SDS011;1458;49.728;9.228;2023-11-19T15:04:16;2.40;;;2.40;;
2896;SDS011;1458;49.728;9.228;2023-11-19T15:06:43;2.30;;;2.30;;
2896;SDS011;1458;49.728;9.228;2023-11-19T15:09:11;2.07;;;2.07;;
2896;SDS011;1458;49.728;9.228;2023-11-19T15:11:41;2.00;;;2.00;;
2896;SDS011;1458;49.728;9.228;2023-11-19T15:14:11;2.00;;;2.00;;
2896;SDS011;1458;49.728;9.228;2023-11-19T15:16:40;2.07;;;2.07;;
2896;SDS011;1458;49.728;9.228;2023-11-19T15:19:09;1.80;;;1.80;;
2896;SDS011;1458;49.728;9.228;2023-11-19T15:21:37;2.30;;;2.30;;
2896;SDS011;1458;49.728;9.228;2023-11-19T15:24:05;2.00;;;2.00;;
2896;SDS011;1458;49.728;9.228;2023-11-19T15:26:34;1.93;;;1.93;;
2896;SDS011;1458;49.728;9.228;2023-11-19T15:29:02;1.90;;;1.90;;
2896;SDS011;1458;49.728;9.228;2023-11-19T15:31:29;2.00;;;2.00;;